sensor_id;sensor_type;location;lat;lon;timestamp;pressure;altitude;pressure_sealevel;temperature;humidity
7930;BME280;4010;42.698;23.124;2023-03-30T00:01:09;118349.16;;;-140.64;54.58
7930;BME280;4010;42.698;23.124;2023-03-30T00:03:39;118349.16;;;-140.64;55.06
7930;BME280;4010;42.698;23.124;2023-03-30T00:06:08;118349.16;;;-140.64;55.62
7930;BME280;4010;42.698;23.124;2023-03-30T00:08:35;118349.16;;;-140.64;55.98
7930;BME280;4010;42.698;23.124;2023-03-30T00:11:05;118349.16;;;-140.64;56.37
7930;BME280;4010;42.698;23.124;2023-03-30T00:13:34;118349.16;;;-140.64;57.02
7930;BME280;4010;42.698;23.124;2023-03-30T00:16:02;118349.16;;;-140.64;57.18
7930;BME280;4010;42.698;23.124;2023-03-30T00:18:29;118349.16;;;-140.64;58.18
7930;BME280;4010;42.698;23.124;2023-03-30T00:20:56;118349.16;;;-140.64;58.41
7930;BME280;4010;42.698;23.124;2023-03-30T00:23:23;118349.16;;;-140.64;58.70
7930;BME280;4010;42.698;23.124;2023-03-30T00:25:50;118349.16;;;-140.64;60.65
7930;BME280;4010;42.698;23.124;2023-03-30T00:28:19;118349.16;;;-140.64;61.77
7930;BME280;4010;42.698;23.124;2023-03-30T00:30:46;118349.16;;;-140.64;61.54
7930;BME280;4010;42.698;23.124;2023-03-30T00:33:13;118349.16;;;-140.64;61.75
7930;BME280;4010;42.698;23.124;2023-03-30T00:35:40;118349.16;;;-140.64;62.27
7930;BME280;4010;42.698;23.124;2023-03-30T00:38:07;118349.16;;;-140.64;62.80
7930;BME280;4010;42.698;23.124;2023-03-30T00:40:33;118349.16;;;-140.64;62.94
7930;BME280;4010;42.698;23.124;2023-03-30T00:43:02;118349.16;;;-140.64;63.56
7930;BME280;4010;42.698;23.124;2023-03-30T00:45:31;118349.16;;;-140.64;64.52
7930;BME280;4010;42.698;23.124;2023-03-30T00:48:02;118349.16;;;-140.64;64.85
7930;BME280;4010;42.698;23.124;2023-03-30T00:50:34;118349.16;;;-140.64;65.56
7930;BME280;4010;42.698;23.124;2023-03-30T00:53:08;118349.16;;;-140.64;65.49
7930;BME280;4010;42.698;23.124;2023-03-30T00:55:38;118349.16;;;-140.64;64.87
7930;BME280;4010;42.698;23.124;2023-03-30T00:58:06;118349.16;;;-140.64;65.24
7930;BME280;4010;42.698;23.124;2023-03-30T01:00:37;118349.16;;;-140.64;65.00
7930;BME280;4010;42.698;23.124;2023-03-30T01:03:09;118349.16;;;-140.64;65.31
7930;BME280;4010;42.698;23.124;2023-03-30T01:05:38;118349.16;;;-140.64;65.61
7930;BME280;4010;42.698;23.124;2023-03-30T01:08:08;118349.16;;;-140.64;65.61
7930;BME280;4010;42.698;23.124;2023-03-30T01:10:38;118349.16;;;-140.64;65.76
7930;BME280;4010;42.698;23.124;2023-03-30T01:13:05;118349.16;;;-140.64;66.64
7930;BME280;4010;42.698;23.124;2023-03-30T01:15:34;118349.16;;;-140.64;67.13
7930;BME280;4010;42.698;23.124;2023-03-30T01:18:16;118349.16;;;-140.64;68.45
7930;BME280;4010;42.698;23.124;2023-03-30T01:21:27;118349.16;;;-140.64;68.83
7930;BME280;4010;42.698;23.124;2023-03-30T01:27:29;118349.16;;;-140.64;69.58
7930;BME280;4010;42.698;23.124;2023-03-30T01:30:25;118349.16;;;-140.64;70.15
7930;BME280;4010;42.698;23.124;2023-03-30T01:39:16;118349.16;;;-140.64;71.65
7930;BME280;4010;42.698;23.124;2023-03-30T01:41:51;118349.16;;;-140.64;72.12
7930;BME280;4010;42.698;23.124;2023-03-30T01:44:28;118349.16;;;-140.64;72.22
7930;BME280;4010;42.698;23.124;2023-03-30T01:46:58;118349.16;;;-140.64;72.88
7930;BME280;4010;42.698;23.124;2023-03-30T01:49:36;118349.16;;;-140.64;73.65
7930;BME280;4010;42.698;23.124;2023-03-30T01:52:09;118349.16;;;-140.64;73.62
7930;BME280;4010;42.698;23.124;2023-03-30T01:54:43;118349.16;;;-140.64;73.95
7930;BME280;4010;42.698;23.124;2023-03-30T01:57:13;118349.16;;;-140.64;73.61
7930;BME280;4010;42.698;23.124;2023-03-30T01:59:47;118349.16;;;-140.64;73.49
7930;BME280;4010;42.698;23.124;2023-03-30T02:02:17;118349.16;;;-140.64;73.41
7930;BME280;4010;42.698;23.124;2023-03-30T02:04:47;118349.16;;;-140.64;73.78
7930;BME280;4010;42.698;23.124;2023-03-30T02:07:16;118349.16;;;-140.64;74.23
7930;BME280;4010;42.698;23.124;2023-03-30T02:09:49;118349.16;;;-140.64;74.45
7930;BME280;4010;42.698;23.124;2023-03-30T02:12:18;118349.16;;;-140.64;74.53
7930;BME280;4010;42.698;23.124;2023-03-30T02:14:46;118349.16;;;-140.64;74.69
7930;BME280;4010;42.698;23.124;2023-03-30T02:17:17;118349.16;;;-140.64;74.60
7930;BME280;4010;42.698;23.124;2023-03-30T02:19:45;118349.16;;;-140.64;75.11
7930;BME280;4010;42.698;23.124;2023-03-30T02:22:14;118349.16;;;-140.64;75.64
7930;BME280;4010;42.698;23.124;2023-03-30T02:24:42;118349.16;;;-140.64;76.36
7930;BME280;4010;42.698;23.124;2023-03-30T02:27:12;118349.16;;;-140.64;76.65
7930;BME280;4010;42.698;23.124;2023-03-30T02:29:41;118349.16;;;-140.64;77.11
7930;BME280;4010;42.698;23.124;2023-03-30T02:32:14;118349.16;;;-140.64;76.81
7930;BME280;4010;42.698;23.124;2023-03-30T02:35:02;118349.16;;;-140.64;76.85
7930;BME280;4010;42.698;23.124;2023-03-30T02:38:01;118349.16;;;-140.64;77.28
7930;BME280;4010;42.698;23.124;2023-03-30T02:40:40;118349.16;;;-140.64;78.02
7930;BME280;4010;42.698;23.124;2023-03-30T02:43:25;118349.16;;;-140.64;77.98
7930;BME280;4010;42.698;23.124;2023-03-30T02:46:05;118349.16;;;-140.64;78.53
7930;BME280;4010;42.698;23.124;2023-03-30T02:48:40;118349.16;;;-140.64;78.60
7930;BME280;4010;42.698;23.124;2023-03-30T02:51:18;118349.16;;;-140.64;78.33
7930;BME280;4010;42.698;23.124;2023-03-30T02:53:55;118349.16;;;-140.64;78.39
7930;BME280;4010;42.698;23.124;2023-03-30T02:56:26;118349.16;;;-140.64;78.21
7930;BME280;4010;42.698;23.124;2023-03-30T02:58:58;118349.16;;;-140.64;78.53
7930;BME280;4010;42.698;23.124;2023-03-30T03:01:32;118349.16;;;-140.64;78.87
7930;BME280;4010;42.698;23.124;2023-03-30T03:04:01;118349.16;;;-140.64;78.93
7930;BME280;4010;42.698;23.124;2023-03-30T03:06:29;118349.16;;;-140.64;79.30
7930;BME280;4010;42.698;23.124;2023-03-30T03:08:58;118349.16;;;-140.64;79.60
7930;BME280;4010;42.698;23.124;2023-03-30T03:11:25;118349.16;;;-140.64;79.89
7930;BME280;4010;42.698;23.124;2023-03-30T03:13:52;118349.16;;;-140.64;80.13
7930;BME280;4010;42.698;23.124;2023-03-30T03:16:21;118349.16;;;-140.64;79.85
7930;BME280;4010;42.698;23.124;2023-03-30T03:18:47;118349.16;;;-140.64;80.67
7930;BME280;4010;42.698;23.124;2023-03-30T03:21:15;118349.16;;;-140.64;81.47
7930;BME280;4010;42.698;23.124;2023-03-30T03:23:42;118349.16;;;-140.64;80.99
7930;BME280;4010;42.698;23.124;2023-03-30T03:26:08;118349.16;;;-140.64;82.17
7930;BME280;4010;42.698;23.124;2023-03-30T03:28:35;118349.16;;;-140.64;83.10
7930;BME280;4010;42.698;23.124;2023-03-30T03:31:02;118349.16;;;-140.64;83.89
7930;BME280;4010;42.698;23.124;2023-03-30T03:33:32;118349.16;;;-140.64;84.96
7930;BME280;4010;42.698;23.124;2023-03-30T03:35:59;118349.16;;;-140.64;84.93
7930;BME280;4010;42.698;23.124;2023-03-30T03:38:26;118349.16;;;-140.64;85.33
7930;BME280;4010;42.698;23.124;2023-03-30T03:40:55;118349.16;;;-140.64;85.25
7930;BME280;4010;42.698;23.124;2023-03-30T03:43:22;118349.16;;;-140.64;85.81
7930;BME280;4010;42.698;23.124;2023-03-30T03:45:50;118349.16;;;-140.64;85.74
7930;BME280;4010;42.698;23.124;2023-03-30T03:48:18;118349.16;;;-140.64;85.76
7930;BME280;4010;42.698;23.124;2023-03-30T03:50:49;118349.16;;;-140.64;85.71
7930;BME280;4010;42.698;23.124;2023-03-30T03:53:16;118349.16;;;-140.64;86.10
7930;BME280;4010;42.698;23.124;2023-03-30T03:55:43;118349.16;;;-140.64;85.93
7930;BME280;4010;42.698;23.124;2023-03-30T03:58:11;118349.16;;;-140.64;86.24
7930;BME280;4010;42.698;23.124;2023-03-30T04:00:37;118349.16;;;-140.64;86.40
7930;BME280;4010;42.698;23.124;2023-03-30T04:03:06;118349.16;;;-140.64;86.51
7930;BME280;4010;42.698;23.124;2023-03-30T04:05:33;118349.16;;;-140.64;86.28
7930;BME280;4010;42.698;23.124;2023-03-30T04:08:01;118349.16;;;-140.64;86.51
7930;BME280;4010;42.698;23.124;2023-03-30T04:10:28;118349.16;;;-140.64;86.71
7930;BME280;4010;42.698;23.124;2023-03-30T04:12:55;118349.16;;;-140.64;86.59
7930;BME280;4010;42.698;23.124;2023-03-30T04:15:22;118349.16;;;-140.64;85.77
7930;BME280;4010;42.698;23.124;2023-03-30T04:17:48;118349.16;;;-140.64;85.42
7930;BME280;4010;42.698;23.124;2023-03-30T04:20:23;118349.16;;;-140.64;85.68
7930;BME280;4010;42.698;23.124;2023-03-30T04:22:50;118349.16;;;-140.64;86.47
7930;BME280;4010;42.698;23.124;2023-03-30T04:25:21;118349.16;;;-140.64;85.82
7930;BME280;4010;42.698;23.124;2023-03-30T04:27:50;118349.16;;;-140.64;85.98
7930;BME280;4010;42.698;23.124;2023-03-30T04:30:18;118349.16;;;-140.64;86.46
7930;BME280;4010;42.698;23.124;2023-03-30T04:32:45;118349.16;;;-140.64;86.55
7930;BME280;4010;42.698;23.124;2023-03-30T04:35:19;118349.16;;;-140.64;85.76
7930;BME280;4010;42.698;23.124;2023-03-30T04:37:46;118349.16;;;-140.64;85.91
7930;BME280;4010;42.698;23.124;2023-03-30T04:40:16;118349.16;;;-140.64;85.13
7930;BME280;4010;42.698;23.124;2023-03-30T04:42:45;118349.16;;;-140.64;84.88
7930;BME280;4010;42.698;23.124;2023-03-30T04:45:14;118349.16;;;-140.64;85.32
7930;BME280;4010;42.698;23.124;2023-03-30T04:47:41;118349.16;;;-140.64;84.87
7930;BME280;4010;42.698;23.124;2023-03-30T04:50:09;118349.16;;;-140.64;84.30
7930;BME280;4010;42.698;23.124;2023-03-30T04:52:35;118349.16;;;-140.64;83.85
7930;BME280;4010;42.698;23.124;2023-03-30T04:55:02;118349.16;;;-140.64;82.98
7930;BME280;4010;42.698;23.124;2023-03-30T04:57:29;118349.16;;;-140.64;82.67
7930;BME280;4010;42.698;23.124;2023-03-30T04:59:57;118349.16;;;-140.64;82.02
7930;BME280;4010;42.698;23.124;2023-03-30T05:02:24;118349.16;;;-140.64;81.25
7930;BME280;4010;42.698;23.124;2023-03-30T05:04:51;118349.16;;;-140.64;80.73
7930;BME280;4010;42.698;23.124;2023-03-30T05:07:17;118349.16;;;-140.64;80.62
7930;BME280;4010;42.698;23.124;2023-03-30T05:09:44;118349.16;;;-140.64;80.95
7930;BME280;4010;42.698;23.124;2023-03-30T05:12:11;118349.16;;;-140.64;80.74
7930;BME280;4010;42.698;23.124;2023-03-30T05:14:38;118349.16;;;-140.64;80.36
7930;BME280;4010;42.698;23.124;2023-03-30T05:17:06;118349.16;;;-140.64;79.82
7930;BME280;4010;42.698;23.124;2023-03-30T05:19:33;118349.16;;;-140.64;80.11
7930;BME280;4010;42.698;23.124;2023-03-30T05:22:01;118349.16;;;-140.64;79.86
7930;BME280;4010;42.698;23.124;2023-03-30T05:24:27;118349.16;;;-140.64;79.44
7930;BME280;4010;42.698;23.124;2023-03-30T05:26:54;118349.16;;;-140.64;78.85
7930;BME280;4010;42.698;23.124;2023-03-30T05:29:21;118349.16;;;-140.64;78.55
7930;BME280;4010;42.698;23.124;2023-03-30T05:31:47;118349.16;;;-140.64;77.91
7930;BME280;4010;42.698;23.124;2023-03-30T05:34:15;118349.16;;;-140.64;77.76
7930;BME280;4010;42.698;23.124;2023-03-30T05:36:42;118349.16;;;-140.64;78.32
7930;BME280;4010;42.698;23.124;2023-03-30T05:39:09;118349.16;;;-140.64;77.09
7930;BME280;4010;42.698;23.124;2023-03-30T05:41:36;118349.16;;;-140.64;76.89
7930;BME280;4010;42.698;23.124;2023-03-30T05:44:02;118349.16;;;-140.64;75.86
7930;BME280;4010;42.698;23.124;2023-03-30T05:46:30;118349.16;;;-140.64;76.33
7930;BME280;4010;42.698;23.124;2023-03-30T05:48:57;118349.16;;;-140.64;76.05
7930;BME280;4010;42.698;23.124;2023-03-30T05:51:25;118349.16;;;-140.64;76.10
7930;BME280;4010;42.698;23.124;2023-03-30T05:53:52;118349.16;;;-140.64;76.44
7930;BME280;4010;42.698;23.124;2023-03-30T05:56:20;118349.16;;;-140.64;75.96
7930;BME280;4010;42.698;23.124;2023-03-30T05:58:47;118349.16;;;-140.64;75.10
7930;BME280;4010;42.698;23.124;2023-03-30T06:01:14;118349.16;;;-140.64;75.73
7930;BME280;4010;42.698;23.124;2023-03-30T06:03:41;118349.16;;;-140.64;74.59
7930;BME280;4010;42.698;23.124;2023-03-30T06:06:08;118349.16;;;-140.64;74.54
7930;BME280;4010;42.698;23.124;2023-03-30T06:08:36;118349.16;;;-140.64;75.34
7930;BME280;4010;42.698;23.124;2023-03-30T06:11:04;118349.16;;;-140.64;74.15
7930;BME280;4010;42.698;23.124;2023-03-30T06:13:31;118349.16;;;-140.64;72.50
7930;BME280;4010;42.698;23.124;2023-03-30T06:15:57;118349.16;;;-140.64;72.89
7930;BME280;4010;42.698;23.124;2023-03-30T06:18:24;118349.16;;;-140.64;73.02
7930;BME280;4010;42.698;23.124;2023-03-30T06:20:51;118349.16;;;-140.64;73.70
7930;BME280;4010;42.698;23.124;2023-03-30T06:23:17;118349.16;;;-140.64;73.69
7930;BME280;4010;42.698;23.124;2023-03-30T06:25:46;118349.16;;;-140.64;73.32
7930;BME280;4010;42.698;23.124;2023-03-30T06:28:17;118349.16;;;-140.64;73.21
7930;BME280;4010;42.698;23.124;2023-03-30T06:30:43;118349.16;;;-140.64;73.02
7930;BME280;4010;42.698;23.124;2023-03-30T06:33:13;118349.16;;;-140.64;73.33
7930;BME280;4010;42.698;23.124;2023-03-30T06:35:43;118349.16;;;-140.64;71.89
7930;BME280;4010;42.698;23.124;2023-03-30T06:38:10;118349.16;;;-140.64;69.50
7930;BME280;4010;42.698;23.124;2023-03-30T06:40:37;118349.16;;;-140.64;68.89
7930;BME280;4010;42.698;23.124;2023-03-30T06:43:05;118349.16;;;-140.64;68.14
7930;BME280;4010;42.698;23.124;2023-03-30T06:45:32;118349.16;;;-140.64;67.87
7930;BME280;4010;42.698;23.124;2023-03-30T06:47:59;118349.16;;;-140.64;68.11
7930;BME280;4010;42.698;23.124;2023-03-30T06:50:25;118349.16;;;-140.64;67.23
7930;BME280;4010;42.698;23.124;2023-03-30T06:52:52;118349.16;;;-140.64;66.08
7930;BME280;4010;42.698;23.124;2023-03-30T06:55:19;118349.16;;;-140.64;65.11
7930;BME280;4010;42.698;23.124;2023-03-30T06:57:45;118349.16;;;-140.64;63.82
7930;BME280;4010;42.698;23.124;2023-03-30T07:00:14;118349.16;;;-140.64;62.27
7930;BME280;4010;42.698;23.124;2023-03-30T07:02:42;118349.16;;;-140.64;62.04
7930;BME280;4010;42.698;23.124;2023-03-30T07:05:09;118349.16;;;-140.64;62.02
7930;BME280;4010;42.698;23.124;2023-03-30T07:07:37;118349.16;;;-140.64;61.75
7930;BME280;4010;42.698;23.124;2023-03-30T07:10:06;118349.16;;;-140.64;59.64
7930;BME280;4010;42.698;23.124;2023-03-30T07:12:34;118349.16;;;-140.64;61.11
7930;BME280;4010;42.698;23.124;2023-03-30T07:15:01;118349.16;;;-140.64;59.75
7930;BME280;4010;42.698;23.124;2023-03-30T07:17:29;118349.16;;;-140.64;59.27
7930;BME280;4010;42.698;23.124;2023-03-30T07:19:56;118349.16;;;-140.64;57.88
7930;BME280;4010;42.698;23.124;2023-03-30T07:22:23;118349.16;;;-140.64;58.66
7930;BME280;4010;42.698;23.124;2023-03-30T07:24:50;118349.16;;;-140.64;59.21
7930;BME280;4010;42.698;23.124;2023-03-30T07:27:17;118349.16;;;-140.64;58.97
7930;BME280;4010;42.698;23.124;2023-03-30T07:29:43;118349.16;;;-140.64;56.93
7930;BME280;4010;42.698;23.124;2023-03-30T07:32:10;118349.16;;;-140.64;57.25
7930;BME280;4010;42.698;23.124;2023-03-30T07:34:38;118349.16;;;-140.64;53.45
7930;BME280;4010;42.698;23.124;2023-03-30T07:37:05;118349.16;;;-140.64;55.06
7930;BME280;4010;42.698;23.124;2023-03-30T07:39:32;118349.16;;;-140.64;53.85
7930;BME280;4010;42.698;23.124;2023-03-30T07:41:59;118349.16;;;-140.64;54.22
7930;BME280;4010;42.698;23.124;2023-03-30T07:44:26;118349.16;;;-140.64;53.68
7930;BME280;4010;42.698;23.124;2023-03-30T07:46:56;118349.16;;;-140.64;52.65
7930;BME280;4010;42.698;23.124;2023-03-30T07:49:23;118349.16;;;-140.64;53.47
7930;BME280;4010;42.698;23.124;2023-03-30T07:51:52;118349.16;;;-140.64;54.03
7930;BME280;4010;42.698;23.124;2023-03-30T07:54:19;118349.16;;;-140.64;53.97
7930;BME280;4010;42.698;23.124;2023-03-30T07:56:46;118349.16;;;-140.64;53.65
7930;BME280;4010;42.698;23.124;2023-03-30T07:59:17;118349.16;;;-140.64;52.14
7930;BME280;4010;42.698;23.124;2023-03-30T08:01:43;118349.16;;;-140.64;53.53
7930;BME280;4010;42.698;23.124;2023-03-30T08:04:10;118349.16;;;-140.64;52.60
7930;BME280;4010;42.698;23.124;2023-03-30T08:06:37;118349.16;;;-140.64;51.32
7930;BME280;4010;42.698;23.124;2023-03-30T08:09:06;118349.16;;;-140.64;52.12
7930;BME280;4010;42.698;23.124;2023-03-30T08:11:32;118349.16;;;-140.64;51.67
7930;BME280;4010;42.698;23.124;2023-03-30T08:14:00;118349.16;;;-140.64;51.42
7930;BME280;4010;42.698;23.124;2023-03-30T08:16:27;118349.16;;;-140.64;51.91
7930;BME280;4010;42.698;23.124;2023-03-30T08:18:53;118349.16;;;-140.64;50.81
7930;BME280;4010;42.698;23.124;2023-03-30T08:21:21;118349.16;;;-140.64;50.81
7930;BME280;4010;42.698;23.124;2023-03-30T08:23:49;118349.16;;;-140.64;50.88
7930;BME280;4010;42.698;23.124;2023-03-30T08:26:18;118349.16;;;-140.64;50.40
7930;BME280;4010;42.698;23.124;2023-03-30T08:28:44;118349.16;;;-140.64;52.00
7930;BME280;4010;42.698;23.124;2023-03-30T08:31:11;118349.16;;;-140.64;50.73
7930;BME280;4010;42.698;23.124;2023-03-30T08:33:38;118349.16;;;-140.64;51.82
7930;BME280;4010;42.698;23.124;2023-03-30T08:36:05;118349.16;;;-140.64;49.28
7930;BME280;4010;42.698;23.124;2023-03-30T08:38:32;118349.16;;;-140.64;48.75
7930;BME280;4010;42.698;23.124;2023-03-30T08:40:58;118349.16;;;-140.64;49.78
7930;BME280;4010;42.698;23.124;2023-03-30T08:43:40;118349.16;;;-140.64;49.51
7930;BME280;4010;42.698;23.124;2023-03-30T08:46:11;118349.16;;;-140.64;49.27
7930;BME280;4010;42.698;23.124;2023-03-30T08:48:40;118349.16;;;-140.64;48.83
7930;BME280;4010;42.698;23.124;2023-03-30T08:51:13;118349.16;;;-140.64;48.27
7930;BME280;4010;42.698;23.124;2023-03-30T08:53:44;118349.16;;;-140.64;50.34
7930;BME280;4010;42.698;23.124;2023-03-30T08:56:15;118349.16;;;-140.64;50.04
7930;BME280;4010;42.698;23.124;2023-03-30T08:58:52;118349.16;;;-140.64;49.13
7930;BME280;4010;42.698;23.124;2023-03-30T09:01:24;118349.16;;;-140.64;51.10
7930;BME280;4010;42.698;23.124;2023-03-30T09:04:12;118349.16;;;-140.64;49.21
7930;BME280;4010;42.698;23.124;2023-03-30T09:06:46;118349.16;;;-140.64;50.12
7930;BME280;4010;42.698;23.124;2023-03-30T09:09:16;118349.16;;;-140.64;48.48
7930;BME280;4010;42.698;23.124;2023-03-30T09:11:45;118349.16;;;-140.64;48.48
7930;BME280;4010;42.698;23.124;2023-03-30T09:14:21;118349.16;;;-140.64;46.45
7930;BME280;4010;42.698;23.124;2023-03-30T09:16:55;118349.16;;;-140.64;49.23
7930;BME280;4010;42.698;23.124;2023-03-30T09:19:26;118349.16;;;-140.64;46.44
7930;BME280;4010;42.698;23.124;2023-03-30T09:21:58;118349.16;;;-140.64;46.35
7930;BME280;4010;42.698;23.124;2023-03-30T09:24:28;118349.16;;;-140.64;46.22
7930;BME280;4010;42.698;23.124;2023-03-30T09:26:58;118349.16;;;-140.64;47.69
7930;BME280;4010;42.698;23.124;2023-03-30T09:29:31;118349.16;;;-140.64;47.86
7930;BME280;4010;42.698;23.124;2023-03-30T09:32:03;118349.16;;;-140.64;48.57
7930;BME280;4010;42.698;23.124;2023-03-30T09:34:37;118349.16;;;-140.64;50.21
7930;BME280;4010;42.698;23.124;2023-03-30T09:37:09;118349.16;;;-140.64;49.50
7930;BME280;4010;42.698;23.124;2023-03-30T09:39:36;118349.16;;;-140.64;49.36
7930;BME280;4010;42.698;23.124;2023-03-30T09:42:13;118349.16;;;-140.64;48.68
7930;BME280;4010;42.698;23.124;2023-03-30T09:44:47;118349.16;;;-140.64;50.01
7930;BME280;4010;42.698;23.124;2023-03-30T09:47:21;118349.16;;;-140.64;46.21
7930;BME280;4010;42.698;23.124;2023-03-30T09:49:54;118349.16;;;-140.64;48.42
7930;BME280;4010;42.698;23.124;2023-03-30T09:52:23;118349.16;;;-140.64;46.58
7930;BME280;4010;42.698;23.124;2023-03-30T09:54:50;118349.16;;;-140.64;47.13
7930;BME280;4010;42.698;23.124;2023-03-30T09:57:27;118349.16;;;-140.64;46.92
7930;BME280;4010;42.698;23.124;2023-03-30T09:59:56;118349.16;;;-140.64;47.12
7930;BME280;4010;42.698;23.124;2023-03-30T10:02:25;118349.16;;;-140.64;47.78
7930;BME280;4010;42.698;23.124;2023-03-30T10:04:59;118349.16;;;-140.64;47.67
7930;BME280;4010;42.698;23.124;2023-03-30T10:07:29;118349.16;;;-140.64;46.74
7930;BME280;4010;42.698;23.124;2023-03-30T10:09:58;118349.16;;;-140.64;46.67
7930;BME280;4010;42.698;23.124;2023-03-30T10:12:26;118349.16;;;-140.64;46.65
7930;BME280;4010;42.698;23.124;2023-03-30T10:14:56;118349.16;;;-140.64;46.54
7930;BME280;4010;42.698;23.124;2023-03-30T10:17:24;118349.16;;;-140.64;47.70
7930;BME280;4010;42.698;23.124;2023-03-30T10:19:52;118349.16;;;-140.64;45.59
7930;BME280;4010;42.698;23.124;2023-03-30T10:22:20;118349.16;;;-140.64;45.67
7930;BME280;4010;42.698;23.124;2023-03-30T10:24:49;118349.16;;;-140.64;46.31
7930;BME280;4010;42.698;23.124;2023-03-30T10:27:18;118349.16;;;-140.64;45.35
7930;BME280;4010;42.698;23.124;2023-03-30T10:29:46;118349.16;;;-140.64;44.36
7930;BME280;4010;42.698;23.124;2023-03-30T10:32:17;118349.16;;;-140.64;44.61
7930;BME280;4010;42.698;23.124;2023-03-30T10:34:46;118349.16;;;-140.64;44.74
7930;BME280;4010;42.698;23.124;2023-03-30T10:37:17;118349.16;;;-140.64;43.52
7930;BME280;4010;42.698;23.124;2023-03-30T10:39:46;118349.16;;;-140.64;43.50
7930;BME280;4010;42.698;23.124;2023-03-30T10:42:16;118349.16;;;-140.64;43.62
7930;BME280;4010;42.698;23.124;2023-03-30T10:44:46;118349.16;;;-140.64;44.42
7930;BME280;4010;42.698;23.124;2023-03-30T10:47:28;118349.16;;;-140.64;43.65
7930;BME280;4010;42.698;23.124;2023-03-30T10:50:04;118349.16;;;-140.64;45.67
7930;BME280;4010;42.698;23.124;2023-03-30T10:52:38;118349.16;;;-140.64;43.09
7930;BME280;4010;42.698;23.124;2023-03-30T10:55:14;118349.16;;;-140.64;41.67
7930;BME280;4010;42.698;23.124;2023-03-30T10:57:49;118349.16;;;-140.64;41.77
7930;BME280;4010;42.698;23.124;2023-03-30T11:00:27;118349.16;;;-140.64;43.10
7930;BME280;4010;42.698;23.124;2023-03-30T11:03:04;118349.16;;;-140.64;41.96
7930;BME280;4010;42.698;23.124;2023-03-30T11:05:35;118349.16;;;-140.64;43.35
7930;BME280;4010;42.698;23.124;2023-03-30T11:08:05;118349.16;;;-140.64;44.08
7930;BME280;4010;42.698;23.124;2023-03-30T11:10:37;118349.16;;;-140.64;41.67
7930;BME280;4010;42.698;23.124;2023-03-30T11:13:06;118349.16;;;-140.64;42.62
7930;BME280;4010;42.698;23.124;2023-03-30T11:15:39;118349.16;;;-140.64;39.93
7930;BME280;4010;42.698;23.124;2023-03-30T11:18:18;118349.16;;;-140.64;41.02
7930;BME280;4010;42.698;23.124;2023-03-30T11:20:50;118349.16;;;-140.64;40.37
7930;BME280;4010;42.698;23.124;2023-03-30T11:23:25;118349.16;;;-140.64;41.15
7930;BME280;4010;42.698;23.124;2023-03-30T11:26:01;118349.16;;;-140.64;41.47
7930;BME280;4010;42.698;23.124;2023-03-30T11:28:42;118349.16;;;-140.64;40.51
7930;BME280;4010;42.698;23.124;2023-03-30T11:31:18;118349.16;;;-140.64;40.06
7930;BME280;4010;42.698;23.124;2023-03-30T11:33:54;118349.16;;;-140.64;41.24
7930;BME280;4010;42.698;23.124;2023-03-30T11:36:28;118349.16;;;-140.64;40.84
7930;BME280;4010;42.698;23.124;2023-03-30T11:39:01;118349.16;;;-140.64;39.36
7930;BME280;4010;42.698;23.124;2023-03-30T11:41:34;118349.16;;;-140.64;40.64
7930;BME280;4010;42.698;23.124;2023-03-30T11:44:02;118349.16;;;-140.64;37.51
7930;BME280;4010;42.698;23.124;2023-03-30T11:46:35;118349.16;;;-140.64;37.84
7930;BME280;4010;42.698;23.124;2023-03-30T11:49:22;118349.16;;;-140.64;40.40
7930;BME280;4010;42.698;23.124;2023-03-30T11:52:05;118349.16;;;-140.64;40.83
7930;BME280;4010;42.698;23.124;2023-03-30T11:54:45;118349.16;;;-140.64;41.47
7930;BME280;4010;42.698;23.124;2023-03-30T11:57:21;118349.16;;;-140.64;38.77
7930;BME280;4010;42.698;23.124;2023-03-30T11:59:56;118349.16;;;-140.64;39.45
7930;BME280;4010;42.698;23.124;2023-03-30T12:02:38;118349.16;;;-140.64;40.18
7930;BME280;4010;42.698;23.124;2023-03-30T12:05:16;118349.16;;;-140.64;39.71
7930;BME280;4010;42.698;23.124;2023-03-30T12:07:49;118349.16;;;-140.64;40.41
7930;BME280;4010;42.698;23.124;2023-03-30T12:10:23;118349.16;;;-140.64;40.66
7930;BME280;4010;42.698;23.124;2023-03-30T12:12:51;118349.16;;;-140.64;39.97
7930;BME280;4010;42.698;23.124;2023-03-30T12:15:32;118349.16;;;-140.64;39.41
7930;BME280;4010;42.698;23.124;2023-03-30T12:18:04;118349.16;;;-140.64;40.88
7930;BME280;4010;42.698;23.124;2023-03-30T12:20:42;118349.16;;;-140.64;38.79
7930;BME280;4010;42.698;23.124;2023-03-30T12:23:18;118349.16;;;-140.64;38.17
7930;BME280;4010;42.698;23.124;2023-03-30T12:26:04;118349.16;;;-140.64;39.44
7930;BME280;4010;42.698;23.124;2023-03-30T12:28:42;118349.16;;;-140.64;38.59
7930;BME280;4010;42.698;23.124;2023-03-30T12:31:09;118349.16;;;-140.64;39.82
7930;BME280;4010;42.698;23.124;2023-03-30T12:33:43;118349.16;;;-140.64;38.48
7930;BME280;4010;42.698;23.124;2023-03-30T12:36:34;118349.16;;;-140.64;38.32
7930;BME280;4010;42.698;23.124;2023-03-30T12:39:05;118349.16;;;-140.64;38.41
7930;BME280;4010;42.698;23.124;2023-03-30T12:41:40;118349.16;;;-140.64;38.62
7930;BME280;4010;42.698;23.124;2023-03-30T12:44:23;118349.16;;;-140.64;39.31
7930;BME280;4010;42.698;23.124;2023-03-30T12:47:03;118349.16;;;-140.64;39.04
7930;BME280;4010;42.698;23.124;2023-03-30T12:49:46;118349.16;;;-140.64;38.48
7930;BME280;4010;42.698;23.124;2023-03-30T12:52:26;118349.16;;;-140.64;38.92
7930;BME280;4010;42.698;23.124;2023-03-30T12:55:12;118349.16;;;-140.64;38.23
7930;BME280;4010;42.698;23.124;2023-03-30T12:57:53;118349.16;;;-140.64;39.09
7930;BME280;4010;42.698;23.124;2023-03-30T13:00:43;118349.16;;;-140.64;38.43
7930;BME280;4010;42.698;23.124;2023-03-30T13:03:24;118349.16;;;-140.64;37.41
7930;BME280;4010;42.698;23.124;2023-03-30T13:05:56;118349.16;;;-140.64;38.21
7930;BME280;4010;42.698;23.124;2023-03-30T13:08:30;118349.16;;;-140.64;38.55